Time;durP1;ratioP1;P1;durP2;ratioP2;P2;SDS_P1;SDS_P2;PMS_P1;PMS_P2;Temp;Humidity;BMP_temperature;BMP_pressure;BME280_temperature;BME280_humidity;BME280_pressure;Samples;Min_cycle;Max_cycle;Signal;HPM_P1;HPM_P2
2024/04/17 00:01:42;;;;;;;18.63;8.65;;;4.10;1.00;;;;;;5103023;27;19998;-73
2024/04/17 00:04:08;;;;;;;17.38;10.10;;;4.10;1.00;;;;;;5144186;27;20138;-73
2024/04/17 00:06:34;;;;;;;16.20;9.30;;;4.10;1.00;;;;;;5176650;27;20332;-73
2024/04/17 00:09:00;;;;;;;18.65;9.75;;;4.10;1.00;;;;;;5167225;27;19999;-73
2024/04/17 00:11:25;;;;;;;17.27;8.82;;;4.00;1.00;;;;;;5176531;27;20016;-73
2024/04/17 00:13:51;;;;;;;14.77;8.68;;;4.00;1.00;;;;;;5176972;27;20426;-73
2024/04/17 00:16:16;;;;;;;13.45;8.45;;;4.00;1.00;;;;;;5153757;27;19997;-73
2024/04/17 00:18:42;;;;;;;15.23;9.15;;;4.00;1.00;;;;;;5190622;27;20392;-73
2024/04/17 00:21:08;;;;;;;14.60;8.70;;;3.90;1.00;;;;;;5176186;27;19997;-73
2024/04/17 00:23:33;;;;;;;14.88;8.00;;;3.90;1.00;;;;;;5176377;27;20072;-73
2024/04/17 00:25:59;;;;;;;13.82;7.93;;;3.90;1.00;;;;;;5153653;27;20004;-73
2024/04/17 00:28:25;;;;;;;11.57;7.93;;;3.80;8.50;;;;;;5167074;27;20015;-74
2024/04/17 00:30:50;;;;;;;12.30;7.55;;;3.80;12.90;;;;;;5176412;27;20000;-74
2024/04/17 00:33:16;;;;;;;13.80;7.55;;;3.80;16.90;;;;;;5242253;27;19998;-73
2024/04/17 00:35:42;;;;;;;11.70;7.32;;;3.70;31.40;;;;;;5242495;27;19999;-74
2024/04/17 00:38:07;;;;;;;14.35;8.50;;;3.70;71.10;;;;;;5266249;27;20191;-73
2024/04/17 00:40:33;;;;;;;14.10;7.63;;;3.70;84.10;;;;;;5195796;27;19996;-74
2024/04/17 00:43:02;;;;;;;15.00;7.97;;;3.60;99.20;;;;;;5208970;27;19999;-74
2024/04/17 00:45:33;;;;;;;15.10;7.95;;;3.50;99.90;;;;;;5233048;27;20013;-74
2024/04/17 00:47:59;;;;;;;13.70;7.88;;;3.50;99.90;;;;;;5242496;27;20390;-74
2024/04/17 00:50:25;;;;;;;13.02;7.85;;;3.50;99.90;;;;;;5241910;27;19991;-74
2024/04/17 00:52:51;;;;;;;11.65;7.65;;;3.50;99.90;;;;;;5209064;27;20042;-74
2024/04/17 00:55:17;;;;;;;12.65;7.85;;;3.40;99.90;;;;;;5176105;27;19993;-74
2024/04/17 00:57:44;;;;;;;12.00;7.15;;;3.40;99.90;;;;;;5151407;27;20081;-74
2024/04/17 01:00:10;;;;;;;15.32;7.75;;;3.30;99.90;;;;;;5175963;27;20022;-74
2024/04/17 01:02:35;;;;;;;12.95;8.15;;;3.30;99.90;;;;;;5150547;27;19997;-74
2024/04/17 01:05:01;;;;;;;14.73;8.43;;;3.30;99.90;;;;;;5143689;27;20359;-74
2024/04/17 01:07:27;;;;;;;20.65;11.13;;;3.20;99.90;;;;;;5175909;27;20433;-74
2024/04/17 01:09:54;;;;;;;16.63;10.00;;;3.30;99.90;;;;;;5175758;27;19992;-74
2024/04/17 01:12:20;;;;;;;11.60;8.32;;;3.30;99.90;;;;;;5149860;27;19993;-74
2024/04/17 01:14:46;;;;;;;15.25;8.65;;;3.20;99.90;;;;;;5152578;27;20008;-74
2024/04/17 01:17:11;;;;;;;16.13;9.32;;;3.20;99.90;;;;;;5146942;27;20310;-74
2024/04/17 01:19:37;;;;;;;14.48;8.48;;;3.20;99.90;;;;;;5146371;27;20012;-75
2024/04/17 01:22:03;;;;;;;11.98;7.90;;;3.20;99.90;;;;;;5146840;27;20016;-74
2024/04/17 01:24:28;;;;;;;11.70;8.32;;;3.10;99.90;;;;;;5146755;27;19997;-73
2024/04/17 01:26:54;;;;;;;11.80;7.55;;;3.10;99.90;;;;;;5146726;27;19997;-73
2024/04/17 01:29:19;;;;;;;13.75;7.93;;;3.10;99.90;;;;;;5142288;27;19997;-73
2024/04/17 01:31:45;;;;;;;12.13;8.13;;;3.00;99.90;;;;;;5082651;28;20009;-74
2024/04/17 01:34:10;;;;;;;13.02;7.93;;;3.00;99.90;;;;;;5082540;28;19995;-74
2024/04/17 01:36:36;;;;;;;11.48;8.30;;;3.00;1.00;;;;;;5082704;28;20351;-74
2024/04/17 01:39:01;;;;;;;13.18;7.82;;;3.00;1.00;;;;;;4986387;28;20442;-74
2024/04/17 01:41:27;;;;;;;11.63;8.10;;;3.00;1.00;;;;;;5042484;28;20000;-74
2024/04/17 01:43:52;;;;;;;14.32;9.40;;;3.00;1.00;;;;;;5051382;28;20014;-74
2024/04/17 01:46:18;;;;;;;13.23;8.55;;;2.90;1.00;;;;;;5094611;28;19997;-73
2024/04/17 01:48:43;;;;;;;12.18;8.55;;;2.90;1.00;;;;;;5167164;27;20012;-73
2024/04/17 01:51:09;;;;;;;13.80;8.10;;;2.90;1.00;;;;;;5191723;27;20087;-74
2024/04/17 01:53:34;;;;;;;14.30;8.82;;;2.90;1.00;;;;;;5178565;27;20068;-74
2024/04/17 01:56:00;;;;;;;12.25;8.48;;;2.90;1.00;;;;;;5178307;27;20008;-74
2024/04/17 01:58:25;;;;;;;12.88;8.68;;;2.80;1.00;;;;;;5211188;27;19996;-73
2024/04/17 02:00:51;;;;;;;14.02;9.02;;;2.80;1.00;;;;;;5178300;27;20634;-73
2024/04/17 02:03:17;;;;;;;12.98;8.70;;;2.80;1.00;;;;;;5178218;27;19992;-73
2024/04/17 02:05:42;;;;;;;13.60;9.10;;;2.70;1.00;;;;;;5156118;27;20008;-73
2024/04/17 02:08:08;;;;;;;12.68;8.73;;;2.70;1.00;;;;;;5113871;28;19997;-73
2024/04/17 02:10:33;;;;;;;14.32;9.13;;;2.70;1.00;;;;;;5092174;28;20379;-73
2024/04/17 02:12:59;;;;;;;13.25;9.32;;;2.70;1.00;;;;;;5081595;28;20009;-73
2024/04/17 02:15:24;;;;;;;13.07;8.38;;;2.60;1.00;;;;;;5082881;28;20039;-73
2024/04/17 02:17:50;;;;;;;12.65;8.85;;;2.60;1.00;;;;;;5158503;27;20064;-73
2024/04/17 02:20:15;;;;;;;11.00;8.95;;;2.60;1.00;;;;;;5178010;27;20550;-74
2024/04/17 02:22:41;;;;;;;13.52;9.20;;;2.60;37.20;;;;;;5178675;27;20041;-74
2024/04/17 02:25:06;;;;;;;11.57;8.35;;;2.60;48.30;;;;;;5154539;27;20001;-74
2024/04/17 02:27:32;;;;;;;11.73;8.40;;;2.60;60.90;;;;;;5168259;27;19997;-74
2024/04/17 02:29:57;;;;;;;15.10;8.75;;;2.60;74.70;;;;;;5201350;27;19996;-74
2024/04/17 02:32:23;;;;;;;14.25;8.63;;;2.50;72.80;;;;;;5234461;27;20553;-75
2024/04/17 02:34:48;;;;;;;13.73;8.73;;;2.50;84.80;;;;;;5291225;27;20488;-75
2024/04/17 02:37:14;;;;;;;13.55;8.60;;;2.50;99.90;;;;;;5277191;27;19998;-75
2024/04/17 02:39:39;;;;;;;13.38;9.13;;;2.50;99.90;;;;;;5349708;26;20428;-74
2024/04/17 02:42:05;;;;;;;14.77;9.20;;;2.50;99.90;;;;;;5311567;27;19990;-74
2024/04/17 02:44:30;;;;;;;14.27;8.57;;;2.50;99.90;;;;;;5311558;27;19993;-74
2024/04/17 02:47:00;;;;;;;12.73;9.02;;;2.40;99.90;;;;;;5243795;27;19995;-74
2024/04/17 02:49:26;;;;;;;12.50;9.45;;;2.40;99.90;;;;;;5219793;27;20007;-74
2024/04/17 02:51:52;;;;;;;11.20;8.23;;;2.40;99.90;;;;;;5210554;27;20000;-74
2024/04/17 02:54:17;;;;;;;12.52;8.82;;;2.40;99.90;;;;;;5244440;27;19994;-74
2024/04/17 02:56:43;;;;;;;11.85;8.68;;;2.40;99.90;;;;;;5244092;27;20422;-74
2024/04/17 02:59:08;;;;;;;14.90;8.90;;;2.40;99.90;;;;;;5243126;27;20006;-75
2024/04/17 03:01:34;;;;;;;11.98;8.73;;;2.30;99.90;;;;;;5242027;27;20002;-76
2024/04/17 03:03:59;;;;;;;13.77;9.27;;;2.30;99.90;;;;;;5241706;27;19999;-74
2024/04/17 03:06:25;;;;;;;12.38;8.63;;;2.30;1.00;;;;;;5210591;27;20003;-74
2024/04/17 03:08:51;;;;;;;15.38;9.30;;;2.30;1.00;;;;;;5209736;27;19992;-74
2024/04/17 03:11:17;;;;;;;14.32;9.40;;;2.40;39.00;;;;;;5208185;27;20038;-76
2024/04/17 03:13:42;;;;;;;14.10;9.88;;;2.40;79.90;;;;;;5242685;27;20006;-74
2024/04/17 03:16:08;;;;;;;13.50;9.80;;;2.50;99.90;;;;;;5244015;27;20482;-74
2024/04/17 03:18:33;;;;;;;15.40;9.55;;;2.50;99.90;;;;;;5293823;27;19994;-74
2024/04/17 03:21:00;;;;;;;13.10;10.00;;;2.60;99.90;;;;;;5311122;27;19993;-74
2024/04/17 03:23:25;;;;;;;16.30;10.45;;;2.60;98.50;;;;;;5311627;26;20009;-74
2024/04/17 03:26:01;;;;;;;14.77;9.98;;;2.70;88.30;;;;;;5301027;27;19989;-74
2024/04/17 03:28:27;;;;;;;;;;;2.70;30.00;;;;;;5312758;27;20071;-74
2024/04/17 03:30:53;;;;;;;13.40;10.27;;;2.70;1.00;;;;;;5311524;26;20069;-74
2024/04/17 03:33:18;;;;;;;14.25;10.57;;;2.70;1.00;;;;;;5311113;27;19997;-74
2024/04/17 03:35:59;;;;;;;14.50;10.70;;;2.70;1.00;;;;;;5311244;27;20008;-75
2024/04/17 03:38:25;;;;;;;15.68;10.68;;;2.70;1.00;;;;;;5376184;26;19999;-75
2024/04/17 03:40:53;;;;;;;14.38;9.88;;;2.70;1.00;;;;;;5276431;27;20364;-75
2024/04/17 03:43:19;;;;;;;15.38;10.68;;;2.80;1.00;;;;;;5276616;27;19999;-75
2024/04/17 03:45:44;;;;;;;14.95;11.05;;;2.90;1.00;;;;;;5204254;27;20109;-75
2024/04/17 03:48:10;;;;;;;16.02;10.73;;;3.00;1.00;;;;;;5176701;27;19996;-75
2024/04/17 03:50:35;;;;;;;14.57;10.55;;;3.00;1.00;;;;;;5177446;27;20008;-75
2024/04/17 03:53:01;;;;;;;15.95;11.27;;;3.10;99.90;;;;;;5209530;27;20011;-75
2024/04/17 03:55:26;;;;;;;13.88;10.02;;;3.10;99.90;;;;;;5209955;27;20438;-75
2024/04/17 03:57:52;;;;;;;14.40;10.45;;;3.20;99.90;;;;;;5209719;27;20479;-75
2024/04/17 04:00:17;;;;;;;17.25;11.70;;;3.20;99.90;;;;;;5210101;27;20063;-75
2024/04/17 04:02:43;;;;;;;15.38;11.35;;;3.30;99.90;;;;;;5210336;27;19996;-75
2024/04/17 04:05:09;;;;;;;16.85;11.10;;;3.30;99.90;;;;;;5210008;27;20010;-75
2024/04/17 04:07:35;;;;;;;15.25;10.82;;;3.40;99.90;;;;;;5210154;27;19996;-75
2024/04/17 04:10:01;;;;;;;16.55;12.07;;;3.40;99.90;;;;;;5258991;27;20005;-75
2024/04/17 04:12:27;;;;;;;16.88;12.27;;;3.40;99.90;;;;;;5276449;27;19998;-75
2024/04/17 04:14:52;;;;;;;16.25;12.35;;;3.50;91.50;;;;;;5276327;27;20003;-75
2024/04/17 04:17:18;;;;;;;18.05;11.95;;;3.50;67.60;;;;;;5276799;27;20033;-75
2024/04/17 04:19:43;;;;;;;16.27;12.30;;;3.60;23.20;;;;;;5276392;27;19994;-75
2024/04/17 04:22:09;;;;;;;14.88;11.68;;;3.60;1.00;;;;;;5242877;27;20316;-75
2024/04/17 04:24:35;;;;;;;16.77;11.80;;;3.60;1.00;;;;;;5242891;27;20017;-74
2024/04/17 04:27:00;;;;;;;16.33;11.40;;;3.60;1.00;;;;;;5242441;27;19999;-75
2024/04/17 04:29:26;;;;;;;15.38;10.80;;;3.70;1.00;;;;;;5242693;27;20051;-75
2024/04/17 04:31:51;;;;;;;15.35;11.20;;;3.70;1.00;;;;;;5242217;27;20066;-74
2024/04/17 04:34:17;;;;;;;14.82;11.25;;;3.80;1.00;;;;;;5242420;27;20051;-75
2024/04/17 04:36:42;;;;;;;17.02;10.45;;;3.90;1.00;;;;;;5241855;27;20479;-75
2024/04/17 04:39:08;;;;;;;11.82;9.73;;;3.90;1.00;;;;;;5242242;27;19995;-75
2024/04/17 04:41:33;;;;;;;14.05;9.93;;;4.00;1.00;;;;;;5299757;27;19993;-75
2024/04/17 04:43:59;;;;;;;12.90;10.30;;;4.20;99.90;;;;;;5242397;27;20002;-75
2024/04/17 04:46:24;;;;;;;14.63;10.00;;;4.20;99.90;;;;;;5242202;27;19995;-74
2024/04/17 04:48:50;;;;;;;14.77;9.93;;;4.30;99.90;;;;;;5174597;27;20001;-75
2024/04/17 04:51:15;;;;;;;14.48;9.45;;;4.40;99.90;;;;;;5176708;27;20000;-74
2024/04/17 04:53:41;;;;;;;10.77;8.90;;;4.50;99.90;;;;;;5222624;27;20009;-74
2024/04/17 04:56:06;;;;;;;14.50;9.18;;;4.70;31.40;;;;;;5242882;27;20002;-74
2024/04/17 04:58:32;;;;;;;15.50;9.60;;;4.70;1.00;;;;;;5242444;27;20010;-75
2024/04/17 05:00:58;;;;;;;14.02;9.70;;;4.70;1.00;;;;;;5242989;27;19995;-74
2024/04/17 05:03:23;;;;;;;15.10;9.40;;;4.70;1.00;;;;;;5242058;27;19999;-75
2024/04/17 05:05:49;;;;;;;10.98;9.00;;;4.80;1.00;;;;;;5242423;27;20011;-75
2024/04/17 05:08:15;;;;;;;11.13;8.85;;;4.90;99.90;;;;;;5130510;27;20115;-75
2024/04/17 05:10:41;;;;;;;11.27;8.98;;;5.00;99.90;;;;;;5111603;28;20013;-75
2024/04/17 05:13:06;;;;;;;11.68;9.02;;;5.20;99.90;;;;;;5157864;27;20032;-75
2024/04/17 05:15:32;;;;;;;14.00;9.07;;;5.30;99.90;;;;;;5222974;27;20074;-74
2024/04/17 05:17:57;;;;;;;12.95;8.63;;;5.30;99.90;;;;;;5241922;27;20023;-75
2024/04/17 05:20:23;;;;;;;10.73;7.85;;;5.30;99.90;;;;;;5290905;27;20025;-75
2024/04/17 05:22:50;;;;;;;10.88;7.57;;;5.30;97.60;;;;;;5309045;27;19997;-75
2024/04/17 05:25:16;;;;;;;10.85;7.70;;;5.30;95.60;;;;;;5308893;27;20005;-75
2024/04/17 05:27:42;;;;;;;10.73;7.25;;;5.30;94.40;;;;;;5309154;27;20444;-74
2024/04/17 05:30:10;;;;;;;9.95;7.00;;;5.30;51.90;;;;;;5309501;27;20071;-74
2024/04/17 05:32:36;;;;;;;10.38;7.22;;;5.30;2.90;;;;;;5309358;27;20002;-75
2024/04/17 05:35:02;;;;;;;12.82;7.43;;;5.30;16.10;;;;;;5309336;26;19994;-74
2024/04/17 05:37:27;;;;;;;11.63;6.75;;;5.30;24.60;;;;;;5309470;26;20009;-75
2024/04/17 05:39:53;;;;;;;10.07;7.28;;;5.30;41.80;;;;;;5387799;26;19998;-75
2024/04/17 05:42:18;;;;;;;8.52;6.55;;;5.30;99.90;;;;;;5413771;26;19992;-74
2024/04/17 05:44:44;;;;;;;11.40;6.95;;;5.30;54.70;;;;;;5413617;26;19991;-74
2024/04/17 05:47:10;;;;;;;8.75;6.50;;;5.30;90.80;;;;;;5343191;26;19993;-75
2024/04/17 05:49:35;;;;;;;9.85;6.88;;;5.20;99.90;;;;;;5343309;26;20456;-74
2024/04/17 05:52:01;;;;;;;9.45;6.97;;;5.30;99.90;;;;;;5274931;27;19995;-74
2024/04/17 05:54:26;;;;;;;10.73;7.60;;;5.30;94.70;;;;;;5275222;27;19994;-75
2024/04/17 05:56:52;;;;;;;14.13;9.23;;;5.30;99.90;;;;;;5274588;27;20006;-75
2024/04/17 05:59:17;;;;;;;11.38;7.95;;;5.30;99.90;;;;;;5275074;27;19999;-75
2024/04/17 06:01:43;;;;;;;12.57;8.55;;;5.30;99.90;;;;;;5244470;27;20002;-75
2024/04/17 06:04:08;;;;;;;11.95;8.40;;;5.30;99.90;;;;;;5178373;27;19996;-75
2024/04/17 06:06:34;;;;;;;11.40;8.52;;;5.30;99.90;;;;;;5178393;27;19997;-75
2024/04/17 06:09:00;;;;;;;13.32;9.05;;;5.30;99.90;;;;;;5211319;27;19999;-75
2024/04/17 06:11:26;;;;;;;10.65;9.32;;;5.30;1.00;;;;;;5155107;27;20145;-75
2024/04/17 06:13:51;;;;;;;10.73;9.30;;;5.30;1.00;;;;;;5145776;27;20112;-75
2024/04/17 06:16:17;;;;;;;12.75;9.70;;;5.30;1.00;;;;;;5146051;27;20001;-76
2024/04/17 06:18:42;;;;;;;17.50;11.18;;;5.30;1.00;;;;;;5168344;27;20000;-75
2024/04/17 06:21:08;;;;;;;14.68;10.85;;;5.40;1.00;;;;;;5178036;27;20000;-75
2024/04/17 06:23:33;;;;;;;15.38;10.45;;;5.50;1.00;;;;;;5190841;27;20011;-74
2024/04/17 06:25:59;;;;;;;13.15;10.27;;;5.50;1.00;;;;;;5210763;27;20028;-74
2024/04/17 06:28:25;;;;;;;12.55;10.77;;;5.50;1.00;;;;;;5187472;27;20460;-75
2024/04/17 06:30:50;;;;;;;12.27;10.82;;;5.50;1.00;;;;;;5177507;27;20000;-75
2024/04/17 06:33:16;;;;;;;15.90;13.07;;;5.60;1.00;;;;;;5200505;27;19992;-75
2024/04/17 06:35:41;;;;;;;14.13;10.80;;;5.60;1.00;;;;;;5243430;27;20006;-76
2024/04/17 06:38:08;;;;;;;15.95;10.90;;;5.70;1.00;;;;;;5243695;27;19999;-75
2024/04/17 06:40:34;;;;;;;19.10;11.15;;;5.70;1.00;;;;;;5243995;27;19995;-74
2024/04/17 06:42:59;;;;;;;14.60;10.60;;;5.80;1.00;;;;;;5281671;27;19994;-74
2024/04/17 06:45:25;;;;;;;17.20;10.40;;;5.70;1.00;;;;;;5277547;27;20005;-75
2024/04/17 06:47:50;;;;;;;13.02;9.60;;;5.70;1.00;;;;;;5277654;27;20008;-75
2024/04/17 06:50:16;;;;;;;13.02;9.82;;;5.80;1.00;;;;;;5277504;27;20067;-75
2024/04/17 06:52:41;;;;;;;15.43;10.13;;;5.70;1.00;;;;;;5277661;27;20006;-74
2024/04/17 06:55:07;;;;;;;11.63;9.80;;;5.70;1.00;;;;;;5277639;27;19994;-74
2024/04/17 06:57:32;;;;;;;12.73;10.30;;;5.80;1.00;;;;;;5277596;27;20006;-75
2024/04/17 06:59:58;;;;;;;15.30;9.88;;;5.80;1.00;;;;;;5277532;27;20002;-75
2024/04/17 07:02:24;;;;;;;14.05;9.93;;;5.80;1.00;;;;;;5210292;27;20375;-75
2024/04/17 07:04:49;;;;;;;17.08;10.00;;;5.80;1.00;;;;;;5187508;27;20000;-74
2024/04/17 07:07:15;;;;;;;12.68;10.20;;;5.90;1.00;;;;;;5178125;27;20002;-74
2024/04/17 07:09:41;;;;;;;13.13;9.50;;;5.80;1.00;;;;;;5244021;27;20320;-74
2024/04/17 07:12:07;;;;;;;13.82;9.52;;;5.90;1.00;;;;;;5209384;27;20003;-74
2024/04/17 07:14:33;;;;;;;14.48;9.68;;;6.00;1.00;;;;;;5201119;27;20011;-74
2024/04/17 07:16:58;;;;;;;14.65;10.38;;;6.00;1.00;;;;;;5187451;27;20382;-74
2024/04/17 07:19:24;;;;;;;11.13;10.02;;;6.10;1.00;;;;;;5210186;27;20006;-74
2024/04/17 07:21:51;;;;;;;10.55;9.23;;;6.10;1.00;;;;;;5209984;27;20011;-74
2024/04/17 07:24:16;;;;;;;10.82;9.43;;;6.20;1.00;;;;;;5210309;27;20099;-74
2024/04/17 07:26:42;;;;;;;11.00;9.23;;;6.20;1.00;;;;;;5210207;27;20448;-74
2024/04/17 07:29:07;;;;;;;12.88;10.55;;;6.20;1.00;;;;;;5276860;27;19994;-74
2024/04/17 07:31:33;;;;;;;10.25;8.82;;;6.20;1.00;;;;;;5276733;27;19995;-74
2024/04/17 07:33:58;;;;;;;10.52;9.38;;;6.30;1.00;;;;;;5252500;27;20442;-74
2024/04/17 07:36:24;;;;;;;11.20;9.70;;;6.40;1.00;;;;;;5243370;27;20505;-74
2024/04/17 07:38:50;;;;;;;13.50;9.57;;;6.30;1.00;;;;;;5243138;27;20335;-74
2024/04/17 07:41:15;;;;;;;13.32;9.45;;;6.50;1.00;;;;;;5219942;27;20063;-75
2024/04/17 07:43:41;;;;;;;13.80;10.00;;;6.60;1.00;;;;;;5210090;27;20004;-74
2024/04/17 07:46:07;;;;;;;9.50;8.50;;;6.70;1.00;;;;;;5243027;27;20006;-74
2024/04/17 07:48:33;;;;;;;7.03;6.32;;;6.70;1.00;;;;;;5209269;27;19996;-74
2024/04/17 07:50:58;;;;;;;7.60;6.70;;;6.70;1.00;;;;;;5219753;27;20003;-74
2024/04/17 07:53:24;;;;;;;9.80;6.60;;;6.70;1.00;;;;;;5242844;27;19991;-75
2024/04/17 07:55:49;;;;;;;7.90;6.13;;;6.70;1.00;;;;;;5243154;27;20041;-74
2024/04/17 07:58:15;;;;;;;6.97;6.05;;;6.70;1.00;;;;;;5276559;27;20061;-74
2024/04/17 08:00:41;;;;;;;6.07;5.47;;;6.70;1.00;;;;;;5252961;27;20070;-74
2024/04/17 08:03:07;;;;;;;9.38;6.43;;;6.70;1.00;;;;;;5209847;27;19991;-74
2024/04/17 08:05:33;;;;;;;7.95;6.07;;;6.80;1.00;;;;;;5186501;27;20007;-74
2024/04/17 08:07:58;;;;;;;7.78;6.45;;;6.70;1.00;;;;;;5177209;27;19996;-74
2024/04/17 08:10:25;;;;;;;8.82;6.70;;;6.70;1.00;;;;;;5243103;27;19991;-74
2024/04/17 08:13:04;;;;;;;6.25;5.50;;;6.70;1.00;;;;;;5243013;27;19995;-74
2024/04/17 08:15:30;;;;;;;9.25;7.60;;;6.70;1.00;;;;;;5209449;27;20421;-74
2024/04/17 08:17:55;;;;;;;8.77;6.85;;;6.70;1.00;;;;;;5156202;27;20001;-74
2024/04/17 08:20:21;;;;;;;7.40;6.03;;;6.80;1.00;;;;;;5144170;27;20011;-74
2024/04/17 08:22:46;;;;;;;7.90;6.00;;;6.80;1.00;;;;;;5175024;27;20004;-74
2024/04/17 08:25:12;;;;;;;5.93;5.00;;;6.80;1.00;;;;;;5188726;27;19996;-74
2024/04/17 08:27:37;;;;;;;6.80;5.28;;;6.80;1.00;;;;;;5204097;27;20496;-74
2024/04/17 08:30:03;;;;;;;5.88;5.25;;;6.80;1.00;;;;;;5176256;27;20008;-74
2024/04/17 08:32:29;;;;;;;10.77;9.63;;;6.90;1.00;;;;;;5176050;27;20003;-74
2024/04/17 08:34:55;;;;;;;7.82;6.50;;;6.90;1.00;;;;;;5150480;27;20120;-75
2024/04/17 08:37:21;;;;;;;6.25;5.65;;;7.00;1.00;;;;;;5176215;27;20007;-75
2024/04/17 08:39:47;;;;;;;6.28;5.68;;;7.00;1.00;;;;;;5176844;27;20000;-74
2024/04/17 08:42:20;;;;;;;8.07;6.53;;;7.00;99.90;;;;;;5176345;27;20000;-75
2024/04/17 08:44:46;;;;;;;8.68;7.15;;;7.00;1.00;;;;;;5209220;27;19995;-74
2024/04/17 08:47:14;;;;;;;6.88;5.88;;;6.90;1.00;;;;;;5234375;27;19995;-75
2024/04/17 08:49:40;;;;;;;7.30;5.60;;;7.10;1.00;;;;;;5216510;27;20014;-74
2024/04/17 08:52:09;;;;;;;16.40;11.50;;;7.30;1.00;;;;;;5208930;27;20127;-74
2024/04/17 08:54:35;;;;;;;7.18;5.78;;;7.60;1.00;;;;;;5176045;27;20033;-75
2024/04/17 08:57:01;;;;;;;6.43;5.80;;;7.90;1.00;;;;;;5150158;27;19997;-74
2024/04/17 08:59:26;;;;;;;5.85;5.25;;;8.20;99.90;;;;;;5149974;27;19997;-74
2024/04/17 09:01:52;;;;;;;6.47;5.57;;;8.30;99.90;;;;;;5143844;27;20159;-74
2024/04/17 09:04:19;;;;;;;9.95;5.90;;;8.40;99.90;;;;;;5196617;27;20006;-74
2024/04/17 09:06:45;;;;;;;6.57;5.50;;;8.30;93.10;;;;;;5209273;27;20004;-74
2024/04/17 09:09:13;;;;;;;6.25;5.55;;;8.40;92.80;;;;;;5263773;27;20039;-74
2024/04/17 09:11:40;;;;;;;7.50;6.40;;;8.40;20.40;;;;;;5275585;27;20005;-75
2024/04/17 09:14:06;;;;;;;6.93;6.07;;;8.50;80.90;;;;;;5275776;27;19998;-74
2024/04/17 09:16:32;;;;;;;7.22;6.22;;;8.40;1.00;;;;;;5242097;27;20454;-75
2024/04/17 09:18:57;;;;;;;8.02;6.82;;;8.30;1.00;;;;;;5241435;27;20481;-75
2024/04/17 09:21:23;;;;;;;7.78;6.50;;;8.20;54.50;;;;;;5241972;27;19995;-75
2024/04/17 09:23:48;;;;;;;9.02;6.40;;;8.20;99.90;;;;;;5275302;27;20005;-74
2024/04/17 09:26:16;;;;;;;7.53;6.40;;;8.30;99.90;;;;;;5275448;27;20423;-75
2024/04/17 09:28:41;;;;;;;6.40;5.63;;;8.40;99.90;;;;;;5276075;27;20369;-75
2024/04/17 09:31:08;;;;;;;12.10;6.40;;;8.60;4.10;;;;;;5158380;27;19997;-75
2024/04/17 09:33:34;;;;;;;7.00;5.93;;;8.70;1.00;;;;;;5208601;27;20424;-75
2024/04/17 09:36:02;;;;;;;7.32;5.88;;;8.60;1.00;;;;;;5211392;27;20000;-75
2024/04/17 09:38:28;;;;;;;5.95;5.35;;;8.60;49.90;;;;;;5244468;27;20007;-75
2024/04/17 09:40:53;;;;;;;7.03;5.97;;;8.60;1.00;;;;;;5244737;27;20324;-75
2024/04/17 09:43:24;;;;;;;7.28;6.43;;;8.80;1.00;;;;;;5245039;27;19994;-75
2024/04/17 09:45:58;;;;;;;13.25;7.32;;;8.90;1.00;;;;;;5211401;27;20002;-75
2024/04/17 09:48:27;;;;;;;7.60;6.80;;;8.80;1.00;;;;;;5267380;27;19994;-75
2024/04/17 09:50:59;;;;;;;8.45;6.90;;;8.60;1.00;;;;;;5279106;27;20026;-75
2024/04/17 09:53:44;;;;;;;6.88;5.40;;;8.30;58.30;;;;;;5245233;27;20114;-75
2024/04/17 09:56:12;;;;;;;4.68;3.65;;;8.00;99.90;;;;;;5245277;27;20039;-75
2024/04/17 09:58:39;;;;;;;5.95;3.40;;;7.80;99.90;;;;;;5245276;27;20007;-75
2024/04/17 10:01:07;;;;;;;8.00;5.75;;;7.70;99.90;;;;;;5248194;27;20009;-75
2024/04/17 10:03:36;;;;;;;9.73;7.68;;;7.70;99.90;;;;;;5312298;27;20012;-75
2024/04/17 10:06:03;;;;;;;7.53;6.72;;;7.50;99.90;;;;;;5312769;27;20425;-75
2024/04/17 10:08:31;;;;;;;7.63;5.95;;;7.40;99.90;;;;;;5309812;27;20495;-75
2024/04/17 10:10:57;;;;;;;8.18;5.85;;;7.40;99.90;;;;;;5290845;27;20005;-75
2024/04/17 10:13:23;;;;;;;7.55;5.97;;;7.30;99.90;;;;;;5278254;27;20418;-75
2024/04/17 10:15:53;;;;;;;6.32;5.60;;;7.50;99.90;;;;;;5278662;27;19998;-75
2024/04/17 10:18:19;;;;;;;8.40;7.20;;;7.80;99.90;;;;;;5278558;27;20068;-75
2024/04/17 10:20:45;;;;;;;7.78;6.93;;;7.70;99.90;;;;;;5278583;27;20010;-75
2024/04/17 10:23:13;;;;;;;7.85;6.97;;;7.70;99.90;;;;;;5293516;27;20078;-75
2024/04/17 10:25:56;;;;;;;9.40;7.88;;;7.70;99.90;;;;;;5384714;26;20032;-75
2024/04/17 10:28:22;;;;;;;9.55;8.02;;;7.60;99.90;;;;;;5384910;26;20001;-75
2024/04/17 10:30:49;;;;;;;11.00;7.75;;;7.70;99.90;;;;;;5385182;26;20011;-74
2024/04/17 10:33:33;;;;;;;9.05;7.57;;;7.60;99.90;;;;;;5417175;26;20003;-75
2024/04/17 10:36:03;;;;;;;9.70;7.75;;;7.50;99.90;;;;;;5381370;26;19996;-75
2024/04/17 10:38:31;;;;;;;10.05;8.40;;;7.30;99.90;;;;;;5346306;26;20402;-75
2024/04/17 10:40:58;;;;;;;9.02;8.00;;;7.10;99.90;;;;;;5346825;26;19993;-75
2024/04/17 10:43:25;;;;;;;10.63;8.25;;;7.10;99.90;;;;;;5346581;26;20005;-75
2024/04/17 10:46:09;;;;;;;9.65;8.02;;;7.10;99.90;;;;;;5242754;27;20445;-75
2024/04/17 10:48:46;;;;;;;11.27;9.18;;;7.10;99.90;;;;;;5244131;27;20091;-75
2024/04/17 10:51:14;;;;;;;8.40;6.53;;;7.10;99.90;;;;;;5210939;27;19995;-75
2024/04/17 10:53:46;;;;;;;9.25;6.18;;;7.30;99.90;;;;;;5210715;27;20464;-75
2024/04/17 10:56:15;;;;;;;7.13;5.70;;;7.40;99.90;;;;;;5210955;27;20000;-75
2024/04/17 10:58:41;;;;;;;8.30;5.93;;;7.30;99.90;;;;;;5210080;27;20006;-75
2024/04/17 11:01:06;;;;;;;8.48;6.18;;;7.50;99.90;;;;;;5177287;27;20024;-75
2024/04/17 11:03:32;;;;;;;7.40;5.60;;;7.60;99.90;;;;;;5106966;28;19994;-75
2024/04/17 11:05:58;;;;;;;6.97;5.88;;;7.60;72.90;;;;;;5084955;27;20475;-75
2024/04/17 11:08:24;;;;;;;8.23;5.78;;;7.60;85.20;;;;;;5145267;27;20001;-75
2024/04/17 11:10:50;;;;;;;6.82;5.38;;;7.60;1.00;;;;;;5081398;28;19998;-75
2024/04/17 11:13:17;;;;;;;6.93;5.20;;;7.60;1.00;;;;;;5081913;28;19998;-75
2024/04/17 11:15:43;;;;;;;11.88;6.72;;;7.70;1.00;;;;;;5112870;27;20350;-75
2024/04/17 11:18:09;;;;;;;7.68;5.40;;;7.80;32.50;;;;;;5177743;27;19996;-75
2024/04/17 11:20:35;;;;;;;7.00;5.20;;;8.00;1.00;;;;;;5177322;27;20006;-75
2024/04/17 11:23:04;;;;;;;6.22;4.78;;;8.00;99.90;;;;;;5151197;27;20098;-75
2024/04/17 11:25:30;;;;;;;7.65;4.95;;;8.10;99.90;;;;;;5177301;27;20433;-75
2024/04/17 11:27:56;;;;;;;8.50;4.93;;;8.30;99.90;;;;;;5177509;27;20011;-74
2024/04/17 11:30:22;;;;;;;5.97;4.55;;;8.50;99.90;;;;;;5202213;27;20031;-74
2024/04/17 11:32:47;;;;;;;6.55;4.63;;;8.60;99.90;;;;;;5209739;27;20002;-74
2024/04/17 11:35:15;;;;;;;6.50;4.15;;;8.50;64.50;;;;;;5235216;27;20014;-74
2024/04/17 11:37:59;;;;;;;6.82;4.22;;;8.20;4.00;;;;;;5255629;26;19999;-74
2024/04/17 11:40:27;;;;;;;6.63;4.32;;;8.10;28.70;;;;;;5346166;26;19993;-74
2024/04/17 11:42:52;;;;;;;6.13;4.28;;;7.90;75.10;;;;;;5273728;27;20063;-74
2024/04/17 11:45:18;;;;;;;7.38;4.60;;;8.00;99.90;;;;;;5276864;27;20002;-74
2024/04/17 11:47:43;;;;;;;8.10;4.35;;;8.00;99.90;;;;;;5242632;27;20445;-74
2024/04/17 11:50:10;;;;;;;7.75;5.15;;;7.90;99.90;;;;;;5242712;27;19994;-74
2024/04/17 11:52:36;;;;;;;6.72;4.43;;;7.60;99.90;;;;;;5243036;27;20054;-74
2024/04/17 11:55:02;;;;;;;8.88;4.50;;;7.60;99.90;;;;;;5243284;27;20006;-74
2024/04/17 11:57:28;;;;;;;7.57;4.68;;;7.50;99.90;;;;;;5276049;27;20046;-76
2024/04/17 11:59:55;;;;;;;8.32;4.50;;;7.40;99.90;;;;;;5276579;27;20006;-76
2024/04/17 12:02:20;;;;;;;6.88;4.60;;;7.20;99.90;;;;;;5242481;27;20399;-75
2024/04/17 12:04:46;;;;;;;8.05;4.85;;;7.30;99.90;;;;;;5238602;27;20002;-75
2024/04/17 12:07:12;;;;;;;9.60;5.18;;;7.30;99.90;;;;;;5243043;27;19995;-76
2024/04/17 12:09:37;;;;;;;7.85;5.20;;;7.20;99.90;;;;;;5242500;27;20060;-77
2024/04/17 12:12:03;;;;;;;8.93;5.20;;;7.10;99.90;;;;;;5242656;27;20001;-74
2024/04/17 12:14:29;;;;;;;8.13;4.47;;;7.20;99.90;;;;;;5242608;27;20077;-74
2024/04/17 12:16:55;;;;;;;7.30;5.22;;;7.30;99.90;;;;;;5209336;27;20007;-76
2024/04/17 12:19:21;;;;;;;7.28;4.38;;;7.20;99.90;;;;;;5209417;27;20472;-74
2024/04/17 12:21:48;;;;;;;7.10;3.95;;;7.00;99.90;;;;;;5209435;27;20004;-76
2024/04/17 12:24:18;;;;;;;7.90;4.18;;;7.10;99.90;;;;;;5209363;27;19996;-76
2024/04/17 12:26:51;;;;;;;7.30;3.85;;;7.20;99.90;;;;;;5209800;27;20000;-74
2024/04/17 12:29:17;;;;;;;4.10;3.30;;;7.20;99.90;;;;;;5215563;27;20508;-74
2024/04/17 12:31:42;;;;;;;7.25;3.50;;;7.40;55.80;;;;;;5182513;27;20037;-74
2024/04/17 12:34:08;;;;;;;3.97;2.92;;;7.20;1.00;;;;;;5230039;27;20006;-74
2024/04/17 12:36:35;;;;;;;5.38;3.25;;;7.20;1.00;;;;;;5275494;27;19990;-74
2024/04/17 12:39:00;;;;;;;5.75;3.53;;;7.30;1.00;;;;;;5275623;27;19994;-75
2024/04/17 12:41:26;;;;;;;6.05;2.92;;;7.30;1.00;;;;;;5276013;27;20153;-75
2024/04/17 12:43:51;;;;;;;5.57;3.15;;;7.40;1.00;;;;;;5275968;27;20002;-75
2024/04/17 12:46:17;;;;;;;5.75;3.20;;;7.50;1.00;;;;;;5241862;27;19999;-77
2024/04/17 12:48:42;;;;;;;5.10;3.35;;;7.60;1.00;;;;;;5175529;27;19996;-79